Time;durP1;ratioP1;P1;durP2;ratioP2;P2;SDS_P1;SDS_P2;PMS_P1;PMS_P2;Temp;Humidity;BMP_temperature;BMP_pressure;BME280_temperature;BME280_humidity;BME280_pressure;Samples;Min_cycle;Max_cycle;Signal;HPM_P1;HPM_P2
2023/03/21 00:01:40;;;;;;;25.50;7.20;;;;;;;;;;5014281;28;20053;-66
2023/03/21 00:04:06;;;;;;;28.48;7.25;;;;;;;;;;5014409;28;20026;-66
2023/03/21 00:06:32;;;;;;;30.45;8.40;;;;;;;;;;5014212;28;20029;-66
2023/03/21 00:08:58;;;;;;;28.38;7.65;;;;;;;;;;5014440;28;20026;-66
2023/03/21 00:11:24;;;;;;;20.08;7.20;;;;;;;;;;5013360;28;20053;-65
2023/03/21 00:13:52;;;;;;;24.67;8.05;;;;;;;;;;5014153;28;20105;-66
2023/03/21 00:16:18;;;;;;;23.60;7.72;;;;;;;;;;5014160;28;20018;-67
2023/03/21 00:18:47;;;;;;;28.73;7.38;;;;;;;;;;5013863;28;20049;-66
2023/03/21 00:21:17;;;;;;;25.95;7.65;;;;;;;;;;5013841;28;20620;-66
2023/03/21 00:23:45;;;;;;;31.13;8.32;;;;;;;;;;5014090;28;20023;-66
2023/03/21 00:26:11;;;;;;;28.08;8.30;;;;;;;;;;5014028;28;20041;-66
2023/03/21 00:28:37;;;;;;;34.78;9.15;;;;;;;;;;5013112;28;20078;-66
2023/03/21 00:31:04;;;;;;;30.70;8.15;;;;;;;;;;5013786;28;20110;-66
2023/03/21 00:33:30;;;;;;;29.25;9.18;;;;;;;;;;5013954;28;20080;-66
2023/03/21 00:35:56;;;;;;;33.08;9.63;;;;;;;;;;5013810;28;20058;-67
2023/03/21 00:38:23;;;;;;;29.20;8.82;;;;;;;;;;5013626;28;20048;-65
2023/03/21 00:43:54;;;;;;;28.88;8.13;;;;;;;;;;5013588;28;20056;-66
2023/03/21 00:46:20;;;;;;;29.85;8.73;;;;;;;;;;5012124;28;20056;-65
2023/03/21 00:48:46;;;;;;;35.55;9.10;;;;;;;;;;5013243;28;20036;-66
2023/03/21 00:51:20;;;;;;;26.30;8.90;;;;;;;;;;5013631;28;20118;-66
2023/03/21 00:53:46;;;;;;;31.98;8.43;;;;;;;;;;5013535;28;20054;-66
2023/03/21 00:56:12;;;;;;;26.05;7.95;;;;;;;;;;5013460;28;20026;-67
2023/03/21 00:58:38;;;;;;;28.20;8.93;;;;;;;;;;5013443;28;20022;-67
2023/03/21 01:01:05;;;;;;;30.08;8.35;;;;;;;;;;5012000;28;20038;-69
2023/03/21 01:03:41;;;;;;;28.38;8.55;;;;;;;;;;5012467;28;20491;-67
2023/03/21 01:06:07;;;;;;;22.15;7.35;;;;;;;;;;5013156;28;20042;-68
2023/03/21 01:08:38;;;;;;;29.75;7.95;;;;;;;;;;5012744;28;20029;-66
2023/03/21 01:11:06;;;;;;;28.65;8.98;;;;;;;;;;5013066;28;20463;-68
2023/03/21 01:13:32;;;;;;;22.70;7.90;;;;;;;;;;5013185;28;20060;-67
2023/03/21 01:15:58;;;;;;;24.75;7.70;;;;;;;;;;5013120;28;20025;-67
2023/03/21 01:18:27;;;;;;;30.90;7.85;;;;;;;;;;5011457;28;20498;-67
2023/03/21 01:20:54;;;;;;;24.50;8.10;;;;;;;;;;5013162;28;20022;-68
2023/03/21 01:23:20;;;;;;;21.15;7.32;;;;;;;;;;5013119;28;20021;-67
2023/03/21 01:25:47;;;;;;;29.80;7.65;;;;;;;;;;5012681;28;20049;-69
2023/03/21 01:28:13;;;;;;;25.67;6.93;;;;;;;;;;5011485;28;20383;-69
2023/03/21 01:30:39;;;;;;;27.95;7.30;;;;;;;;;;5012675;28;20030;-69
2023/03/21 01:33:05;;;;;;;33.47;6.93;;;;;;;;;;5012525;28;20370;-69
2023/03/21 01:35:31;;;;;;;29.65;7.75;;;;;;;;;;5011816;28;20033;-68
2023/03/21 01:37:57;;;;;;;37.58;7.45;;;;;;;;;;5012548;28;20028;-69
2023/03/21 01:40:24;;;;;;;29.35;6.72;;;;;;;;;;5012437;28;20480;-69
2023/03/21 01:42:50;;;;;;;21.27;5.88;;;;;;;;;;5012604;28;20026;-69
2023/03/21 01:45:35;;;;;;;28.42;6.90;;;;;;;;;;5012502;28;20398;-70
2023/03/21 01:48:01;;;;;;;24.75;6.38;;;;;;;;;;5012352;28;20037;-69
2023/03/21 01:50:28;;;;;;;19.50;5.57;;;;;;;;;;5011397;28;20021;-70
2023/03/21 01:52:54;;;;;;;24.83;6.13;;;;;;;;;;5012234;28;20101;-70
2023/03/21 01:55:20;;;;;;;25.08;6.00;;;;;;;;;;5012407;28;20113;-68
2023/03/21 01:57:48;;;;;;;28.00;6.22;;;;;;;;;;5012363;28;20502;-70
2023/03/21 02:00:15;;;;;;;17.83;6.80;;;;;;;;;;5012216;28;20036;-71
2023/03/21 02:02:50;;;;;;;18.65;6.10;;;;;;;;;;5011759;28;20092;-69
2023/03/21 02:05:26;;;;;;;22.85;6.15;;;;;;;;;;5012020;28;20076;-70
2023/03/21 02:07:53;;;;;;;24.98;6.43;;;;;;;;;;5011731;28;20406;-71
2023/03/21 02:10:19;;;;;;;36.30;7.05;;;;;;;;;;5011874;28;20538;-70
2023/03/21 02:12:45;;;;;;;23.88;7.68;;;;;;;;;;5012010;28;20030;-69
2023/03/21 02:15:11;;;;;;;23.95;6.63;;;;;;;;;;5012182;28;20026;-69
2023/03/21 02:17:41;;;;;;;17.95;5.47;;;;;;;;;;5011831;28;20032;-70
2023/03/21 02:20:16;;;;;;;31.90;6.95;;;;;;;;;;5011357;28;20379;-70
2023/03/21 02:23:21;;;;;;;25.50;6.03;;;;;;;;;;5011693;28;20030;-70
2023/03/21 02:25:56;;;;;;;21.30;5.45;;;;;;;;;;4988680;28;20107;-70
2023/03/21 02:28:31;;;;;;;20.08;5.45;;;;;;;;;;4989576;28;20081;-70
2023/03/21 02:31:35;;;;;;;15.60;5.00;;;;;;;;;;5002775;28;20118;-70
2023/03/21 02:34:23;;;;;;;20.48;4.93;;;;;;;;;;4989445;28;20054;-70
2023/03/21 02:36:55;;;;;;;23.80;4.97;;;;;;;;;;4989642;28;20034;-70
2023/03/21 02:39:29;;;;;;;21.42;3.90;;;;;;;;;;5003025;28;20029;-70
2023/03/21 02:41:58;;;;;;;22.38;4.28;;;;;;;;;;5010274;28;20040;-69
2023/03/21 02:44:36;;;;;;;17.08;3.58;;;;;;;;;;5011542;28;20156;-70
2023/03/21 02:47:05;;;;;;;22.63;3.97;;;;;;;;;;5011577;28;20031;-70
2023/03/21 02:49:43;;;;;;;23.25;3.90;;;;;;;;;;5011293;28;20014;-71
2023/03/21 02:52:12;;;;;;;24.00;4.25;;;;;;;;;;5011682;28;20030;-70
2023/03/21 02:54:40;;;;;;;19.63;3.65;;;;;;;;;;5011430;28;20032;-69
2023/03/21 02:57:06;;;;;;;15.93;3.92;;;;;;;;;;5010558;28;20038;-69
2023/03/21 02:59:33;;;;;;;24.05;4.25;;;;;;;;;;5011263;28;20025;-69
2023/03/21 03:01:59;;;;;;;19.83;3.15;;;;;;;;;;5011259;28;20054;-71
2023/03/21 03:04:26;;;;;;;14.80;3.65;;;;;;;;;;5010168;28;20029;-70
2023/03/21 03:06:55;;;;;;;17.42;3.78;;;;;;;;;;5011005;28;20065;-70
2023/03/21 03:09:38;;;;;;;17.50;3.97;;;;;;;;;;5011352;28;20026;-70
2023/03/21 03:12:12;;;;;;;17.98;3.55;;;;;;;;;;5010153;28;20061;-70
2023/03/21 03:14:52;;;;;;;17.83;3.78;;;;;;;;;;5011361;28;20030;-70
2023/03/21 03:17:18;;;;;;;22.48;3.60;;;;;;;;;;5011058;28;20025;-70
2023/03/21 03:20:09;;;;;;;12.05;3.70;;;;;;;;;;5011048;28;20034;-70
2023/03/21 03:22:54;;;;;;;17.17;3.22;;;;;;;;;;5010813;28;20398;-70
2023/03/21 03:25:23;;;;;;;18.60;3.83;;;;;;;;;;5010722;28;20065;-70
2023/03/21 03:27:50;;;;;;;22.27;4.07;;;;;;;;;;5011036;28;20030;-70
2023/03/21 03:30:17;;;;;;;15.15;3.58;;;;;;;;;;5010211;28;20022;-70
2023/03/21 03:32:48;;;;;;;21.02;3.25;;;;;;;;;;5013054;28;20061;-69
2023/03/21 03:35:16;;;;;;;18.60;3.08;;;;;;;;;;5014776;28;20035;-71
2023/03/21 03:37:45;;;;;;;13.55;3.30;;;;;;;;;;5014881;28;20033;-71
2023/03/21 03:40:15;;;;;;;16.50;3.15;;;;;;;;;;5014678;28;20105;-71
2023/03/21 03:42:45;;;;;;;15.00;3.58;;;;;;;;;;5014903;28;20068;-70
2023/03/21 03:45:12;;;;;;;16.42;3.75;;;;;;;;;;5014653;28;20125;-69
2023/03/21 03:47:38;;;;;;;19.98;3.90;;;;;;;;;;5013165;28;20045;-70
2023/03/21 03:50:22;;;;;;;11.23;3.88;;;;;;;;;;5014723;28;20034;-70
2023/03/21 03:52:50;;;;;;;12.38;3.10;;;;;;;;;;5014559;28;20028;-70
2023/03/21 03:55:18;;;;;;;17.48;3.47;;;;;;;;;;5014440;28;20471;-71
2023/03/21 03:57:44;;;;;;;25.55;3.60;;;;;;;;;;5014406;28;20411;-70
2023/03/21 04:00:11;;;;;;;11.68;3.15;;;;;;;;;;5014674;28;20417;-71
2023/03/21 04:02:38;;;;;;;13.48;3.30;;;;;;;;;;5013381;28;20131;-70
2023/03/21 04:05:04;;;;;;;20.60;4.03;;;;;;;;;;5014171;28;20497;-71
2023/03/21 04:07:31;;;;;;;12.10;3.60;;;;;;;;;;5014187;28;20522;-70
2023/03/21 04:09:57;;;;;;;14.23;4.00;;;;;;;;;;5014178;28;20026;-70
2023/03/21 04:12:23;;;;;;;19.55;4.20;;;;;;;;;;5014271;28;20018;-71
2023/03/21 04:14:50;;;;;;;18.95;3.72;;;;;;;;;;5014126;28;20025;-71
2023/03/21 04:17:17;;;;;;;25.17;4.15;;;;;;;;;;5013944;28;20034;-72
2023/03/21 04:19:44;;;;;;;20.55;4.47;;;;;;;;;;5012978;28;20026;-71
2023/03/21 04:22:11;;;;;;;14.18;4.25;;;;;;;;;;5014056;28;20018;-71
2023/03/21 04:24:38;;;;;;;13.05;3.05;;;;;;;;;;5013928;28;20037;-70
2023/03/21 04:27:07;;;;;;;23.10;3.60;;;;;;;;;;5014237;28;20109;-72
2023/03/21 04:29:33;;;;;;;12.75;2.80;;;;;;;;;;5014003;28;20495;-71
2023/03/21 04:32:00;;;;;;;17.42;3.08;;;;;;;;;;5013714;28;20544;-71
2023/03/21 04:34:27;;;;;;;14.48;3.35;;;;;;;;;;5013847;28;20436;-71
2023/03/21 04:36:55;;;;;;;17.17;3.92;;;;;;;;;;5012874;28;20105;-71
2023/03/21 04:39:23;;;;;;;15.85;3.55;;;;;;;;;;5012417;28;20042;-72
2023/03/21 04:41:49;;;;;;;15.18;3.70;;;;;;;;;;5013561;28;20025;-71
2023/03/21 04:44:16;;;;;;;25.25;4.20;;;;;;;;;;5012489;28;20486;-72
2023/03/21 04:46:42;;;;;;;14.98;3.05;;;;;;;;;;5013334;28;20038;-71
2023/03/21 04:49:09;;;;;;;19.48;3.00;;;;;;;;;;5013648;28;20018;-71
2023/03/21 04:51:35;;;;;;;13.35;4.30;;;;;;;;;;5013228;28;20030;-73
2023/03/21 04:54:01;;;;;;;21.30;3.50;;;;;;;;;;5012540;28;20022;-72
2023/03/21 04:56:32;;;;;;;18.20;4.03;;;;;;;;;;5013543;28;20029;-71
2023/03/21 04:58:59;;;;;;;13.05;3.20;;;;;;;;;;5013411;28;20482;-71
2023/03/21 05:01:29;;;;;;;18.23;3.78;;;;;;;;;;5013032;28;20045;-72
2023/03/21 05:03:56;;;;;;;15.65;3.35;;;;;;;;;;5013119;28;20038;-73
2023/03/21 05:06:22;;;;;;;16.25;3.75;;;;;;;;;;5013206;28;20037;-72
2023/03/21 05:08:48;;;;;;;22.83;4.15;;;;;;;;;;5013309;28;20026;-72
2023/03/21 05:11:14;;;;;;;13.05;3.97;;;;;;;;;;5012349;28;20528;-71
2023/03/21 05:13:40;;;;;;;20.48;4.65;;;;;;;;;;5013016;28;20018;-72
2023/03/21 05:16:07;;;;;;;20.92;3.80;;;;;;;;;;5013126;28;20092;-72
2023/03/21 05:18:37;;;;;;;10.40;3.28;;;;;;;;;;5012946;28;20018;-72
2023/03/21 05:21:06;;;;;;;23.38;3.15;;;;;;;;;;5012948;28;20025;-72
2023/03/21 05:23:37;;;;;;;15.30;3.20;;;;;;;;;;5012822;28;20564;-71
2023/03/21 05:26:04;;;;;;;16.85;3.13;;;;;;;;;;5011400;28;20038;-72
2023/03/21 05:28:30;;;;;;;13.93;3.10;;;;;;;;;;5012657;28;20025;-72
2023/03/21 05:30:56;;;;;;;27.75;3.25;;;;;;;;;;5011819;28;20091;-73
2023/03/21 05:33:22;;;;;;;27.05;4.28;;;;;;;;;;5012745;28;20053;-72
2023/03/21 05:35:51;;;;;;;18.15;3.22;;;;;;;;;;5012528;28;20030;-72
2023/03/21 05:38:17;;;;;;;19.73;3.15;;;;;;;;;;5012525;28;20064;-71
2023/03/21 05:40:47;;;;;;;18.30;3.50;;;;;;;;;;5012570;28;20072;-72
2023/03/21 05:43:13;;;;;;;18.10;3.00;;;;;;;;;;5012875;28;20026;-72
2023/03/21 05:45:39;;;;;;;19.75;3.08;;;;;;;;;;5012456;28;20037;-71
2023/03/21 05:48:05;;;;;;;15.23;3.10;;;;;;;;;;5011621;28;20040;-69
2023/03/21 05:50:31;;;;;;;20.02;2.78;;;;;;;;;;5012154;28;20022;-70
2023/03/21 05:52:57;;;;;;;17.73;2.45;;;;;;;;;;5012276;28;20033;-69
2023/03/21 05:55:23;;;;;;;22.23;3.50;;;;;;;;;;5012146;28;20033;-69
2023/03/21 05:57:49;;;;;;;18.83;3.17;;;;;;;;;;5012263;28;20026;-68
2023/03/21 06:00:16;;;;;;;10.18;2.50;;;;;;;;;;5007158;28;20495;-69
2023/03/21 06:02:43;;;;;;;17.00;3.17;;;;;;;;;;5002303;28;20376;-70
2023/03/21 06:05:09;;;;;;;14.93;3.13;;;;;;;;;;5011360;28;20422;-70
2023/03/21 06:07:35;;;;;;;11.88;2.97;;;;;;;;;;5012064;28;20029;-70
2023/03/21 06:10:02;;;;;;;14.60;2.75;;;;;;;;;;5006011;28;20573;-70
2023/03/21 06:12:28;;;;;;;26.23;3.17;;;;;;;;;;5001528;28;20157;-70
2023/03/21 06:14:54;;;;;;;17.67;2.92;;;;;;;;;;5002746;28;20080;-71
2023/03/21 06:17:20;;;;;;;13.18;2.95;;;;;;;;;;5002670;28;20045;-71
2023/03/21 06:19:46;;;;;;;15.50;3.63;;;;;;;;;;5003503;28;20474;-69
2023/03/21 06:22:12;;;;;;;14.65;3.15;;;;;;;;;;5001258;28;20128;-71
2023/03/21 06:24:38;;;;;;;21.08;3.97;;;;;;;;;;5002917;28;20505;-70
2023/03/21 06:27:05;;;;;;;26.70;4.53;;;;;;;;;;5011637;28;20030;-69
2023/03/21 06:29:31;;;;;;;13.85;3.08;;;;;;;;;;5023784;28;20387;-70
2023/03/21 06:31:57;;;;;;;18.27;3.28;;;;;;;;;;5000073;28;20384;-69
2023/03/21 06:34:23;;;;;;;14.15;4.03;;;;;;;;;;5009368;28;20018;-71
2023/03/21 06:36:50;;;;;;;18.23;3.60;;;;;;;;;;5010790;28;20030;-70
2023/03/21 06:39:17;;;;;;;13.07;3.30;;;;;;;;;;5011249;28;20042;-70
2023/03/21 06:41:43;;;;;;;28.75;4.25;;;;;;;;;;5011648;28;20026;-70
2023/03/21 06:44:09;;;;;;;16.70;3.03;;;;;;;;;;5010178;28;20434;-73
2023/03/21 06:46:35;;;;;;;20.38;3.47;;;;;;;;;;5011352;28;20549;-71
2023/03/21 06:49:01;;;;;;;17.75;4.22;;;;;;;;;;5011288;28;20079;-70
2023/03/21 06:51:27;;;;;;;15.13;2.83;;;;;;;;;;5011672;28;20108;-74
2023/03/21 06:53:53;;;;;;;21.58;4.30;;;;;;;;;;5010468;28;20026;-74
2023/03/21 06:56:19;;;;;;;15.38;3.10;;;;;;;;;;5011429;28;20026;-74
2023/03/21 06:58:45;;;;;;;19.63;3.80;;;;;;;;;;5011230;28;20557;-74
2023/03/21 07:01:13;;;;;;;22.65;4.25;;;;;;;;;;5010911;28;20499;-76
2023/03/21 07:03:39;;;;;;;18.65;3.17;;;;;;;;;;5011354;28;20119;-75
2023/03/21 07:06:10;;;;;;;14.38;2.85;;;;;;;;;;5008482;28;20037;-77
2023/03/21 07:08:37;;;;;;;15.80;3.30;;;;;;;;;;5012809;28;20033;-77
2023/03/21 07:11:03;;;;;;;32.65;3.97;;;;;;;;;;5015385;28;20105;-78
2023/03/21 07:13:29;;;;;;;13.55;2.88;;;;;;;;;;5013443;28;20029;-78
2023/03/21 07:15:55;;;;;;;20.70;3.35;;;;;;;;;;5013728;28;20109;-79
2023/03/21 07:18:21;;;;;;;14.98;3.15;;;;;;;;;;5013379;28;20253;-78
2023/03/21 07:20:49;;;;;;;16.50;3.42;;;;;;;;;;5013672;28;20045;-77
2023/03/21 07:23:16;;;;;;;17.80;3.40;;;;;;;;;;5012717;28;20080;-77
2023/03/21 07:25:42;;;;;;;18.25;3.85;;;;;;;;;;5013665;28;20041;-74
2023/03/21 07:28:08;;;;;;;16.77;3.97;;;;;;;;;;5012308;28;20394;-79
2023/03/21 07:30:35;;;;;;;12.13;3.05;;;;;;;;;;5014984;28;20026;-76
2023/03/21 07:33:01;;;;;;;10.38;2.42;;;;;;;;;;5014836;28;20022;-76
2023/03/21 07:35:28;;;;;;;17.30;3.10;;;;;;;;;;5012227;28;20112;-75
2023/03/21 07:37:55;;;;;;;9.88;3.38;;;;;;;;;;5014626;28;20026;-73
2023/03/21 07:40:21;;;;;;;25.40;3.20;;;;;;;;;;5014636;28;20501;-71
2023/03/21 07:42:48;;;;;;;14.30;3.60;;;;;;;;;;5013297;28;20097;-70
2023/03/21 07:45:19;;;;;;;16.30;3.95;;;;;;;;;;5014406;28;20439;-68
2023/03/21 07:47:47;;;;;;;28.90;4.37;;;;;;;;;;5014750;28;20062;-67
2023/03/21 07:50:14;;;;;;;17.77;4.50;;;;;;;;;;5014623;28;20056;-67
2023/03/21 07:52:40;;;;;;;25.25;4.63;;;;;;;;;;5014228;28;20026;-65
2023/03/21 07:55:07;;;;;;;15.30;3.28;;;;;;;;;;5014654;28;20021;-66
2023/03/21 07:57:35;;;;;;;18.80;4.57;;;;;;;;;;5014384;28;20022;-67
2023/03/21 08:00:02;;;;;;;18.55;3.67;;;;;;;;;;5014278;28;20052;-66
2023/03/21 08:02:28;;;;;;;23.77;4.22;;;;;;;;;;5012805;28;20046;-67
2023/03/21 08:04:55;;;;;;;15.93;4.07;;;;;;;;;;5014320;28;20060;-67
2023/03/21 08:07:21;;;;;;;33.63;5.50;;;;;;;;;;5013769;28;20048;-68
2023/03/21 08:09:47;;;;;;;17.65;4.35;;;;;;;;;;5012911;28;20029;-68
2023/03/21 08:12:13;;;;;;;18.90;4.32;;;;;;;;;;5014048;28;20030;-67
2023/03/21 08:14:39;;;;;;;20.05;4.78;;;;;;;;;;5014354;28;20032;-66
2023/03/21 08:17:05;;;;;;;17.73;4.80;;;;;;;;;;5013563;28;20026;-67
2023/03/21 08:19:31;;;;;;;25.20;4.63;;;;;;;;;;5013853;28;20132;-67
2023/03/21 08:22:01;;;;;;;22.35;4.78;;;;;;;;;;5014283;28;20131;-66
2023/03/21 08:24:27;;;;;;;25.35;3.78;;;;;;;;;;5013834;28;20014;-67
2023/03/21 08:26:54;;;;;;;15.57;4.50;;;;;;;;;;5012911;28;20042;-67
2023/03/21 08:29:21;;;;;;;10.25;3.60;;;;;;;;;;5013942;28;20030;-67
2023/03/21 08:31:47;;;;;;;8.57;3.28;;;;;;;;;;5013842;28;20223;-68
2023/03/21 08:34:14;;;;;;;23.63;4.47;;;;;;;;;;5012877;28;20022;-68
2023/03/21 08:36:40;;;;;;;25.60;4.18;;;;;;;;;;5013805;28;20026;-68
2023/03/21 08:39:06;;;;;;;24.35;4.75;;;;;;;;;;5013522;28;20433;-68
2023/03/21 08:41:33;;;;;;;23.95;4.47;;;;;;;;;;5013923;28;20026;-68
2023/03/21 08:43:59;;;;;;;17.30;3.35;;;;;;;;;;5012818;28;20034;-68
2023/03/21 08:46:25;;;;;;;13.25;3.72;;;;;;;;;;5013366;28;20065;-67
2023/03/21 08:48:51;;;;;;;23.35;3.30;;;;;;;;;;5013554;28;20471;-67
2023/03/21 08:51:17;;;;;;;42.28;4.55;;;;;;;;;;5010902;28;20026;-68
2023/03/21 08:53:44;;;;;;;12.70;3.15;;;;;;;;;;5013531;28;20467;-67
2023/03/21 08:56:10;;;;;;;17.45;3.30;;;;;;;;;;5013401;28;20463;-67
2023/03/21 08:58:37;;;;;;;20.40;5.10;;;;;;;;;;5013646;28;20057;-67
2023/03/21 09:01:05;;;;;;;24.27;4.95;;;;;;;;;;5013493;28;20483;-68
2023/03/21 09:03:32;;;;;;;16.85;4.00;;;;;;;;;;5013112;28;20181;-68
2023/03/21 09:05:59;;;;;;;21.75;3.05;;;;;;;;;;5013339;28;20048;-68
2023/03/21 09:08:25;;;;;;;16.08;4.18;;;;;;;;;;5013230;28;20036;-68
2023/03/21 09:10:55;;;;;;;12.63;2.88;;;;;;;;;;5012517;28;20541;-68
2023/03/21 09:13:21;;;;;;;20.05;3.53;;;;;;;;;;5012295;28;20360;-68
2023/03/21 09:15:48;;;;;;;16.52;4.50;;;;;;;;;;5011800;28;20026;-67
2023/03/21 09:18:14;;;;;;;20.70;3.60;;;;;;;;;;5013139;28;20026;-69
2023/03/21 09:20:41;;;;;;;14.93;3.67;;;;;;;;;;5013036;28;20022;-69
2023/03/21 09:23:08;;;;;;;18.98;5.35;;;;;;;;;;5013075;28;20057;-68
2023/03/21 09:25:35;;;;;;;18.30;3.47;;;;;;;;;;5012170;28;20121;-69
2023/03/21 09:28:03;;;;;;;17.08;3.42;;;;;;;;;;5012783;28;20026;-69
2023/03/21 09:30:30;;;;;;;14.27;3.55;;;;;;;;;;5012638;28;20037;-69
2023/03/21 09:32:56;;;;;;;12.95;4.28;;;;;;;;;;5012808;28;20414;-69
2023/03/21 09:35:23;;;;;;;18.42;4.47;;;;;;;;;;5012748;28;20026;-69
2023/03/21 09:37:49;;;;;;;14.73;3.75;;;;;;;;;;5012665;28;20026;-69
2023/03/21 09:40:39;;;;;;;17.17;4.32;;;;;;;;;;5012799;28;20034;-69
2023/03/21 09:43:08;;;;;;;16.35;4.20;;;;;;;;;;4992882;28;20100;-69
2023/03/21 09:45:34;;;;;;;20.02;5.28;;;;;;;;;;4992699;28;20035;-70
2023/03/21 09:48:01;;;;;;;14.68;3.75;;;;;;;;;;4991363;28;20109;-69
2023/03/21 09:50:32;;;;;;;17.20;3.67;;;;;;;;;;4992777;28;20023;-69
2023/03/21 09:52:58;;;;;;;27.03;3.50;;;;;;;;;;4992743;28;20027;-69
2023/03/21 09:55:30;;;;;;;11.20;3.70;;;;;;;;;;4998994;28;20356;-68
2023/03/21 09:58:11;;;;;;;7.68;3.65;;;;;;;;;;5012159;28;20026;-69
2023/03/21 10:00:38;;;;;;;19.77;4.10;;;;;;;;;;5012122;28;20590;-68
2023/03/21 10:03:25;;;;;;;23.73;3.78;;;;;;;;;;5012021;28;20768;-70
2023/03/21 10:05:57;;;;;;;18.65;3.63;;;;;;;;;;5011788;28;20113;-69
2023/03/21 10:08:26;;;;;;;40.88;3.67;;;;;;;;;;5012078;28;20018;-70
2023/03/21 10:10:58;;;;;;;18.90;4.47;;;;;;;;;;5012232;28;20491;-71
2023/03/21 10:13:24;;;;;;;;;;;;;;;;;;5012435;28;20018;-71
2023/03/21 10:15:50;;;;;;;16.60;3.95;;;;;;;;;;5012034;28;19912;-71
2023/03/21 10:18:21;;;;;;;21.17;4.82;;;;;;;;;;5011889;28;20033;-70
2023/03/21 10:20:47;;;;;;;17.58;4.25;;;;;;;;;;5010645;28;20054;-71
2023/03/21 10:23:17;;;;;;;14.93;3.85;;;;;;;;;;5012010;28;20475;-72
2023/03/21 10:25:47;;;;;;;13.90;3.10;;;;;;;;;;5012036;28;20068;-74
2023/03/21 10:28:15;;;;;;;14.48;3.78;;;;;;;;;;5011868;28;20032;-72
2023/03/21 10:30:43;;;;;;;12.13;3.63;;;;;;;;;;5011754;28;20026;-71
2023/03/21 10:33:15;;;;;;;8.32;2.70;;;;;;;;;;5011632;28;20391;-72
2023/03/21 10:35:44;;;;;;;9.90;3.47;;;;;;;;;;5011923;28;20022;-72
2023/03/21 10:38:14;;;;;;;18.33;3.28;;;;;;;;;;5011405;28;20108;-73
2023/03/21 10:40:41;;;;;;;16.10;4.20;;;;;;;;;;5011824;28;20034;-72
2023/03/21 10:43:25;;;;;;;15.38;3.40;;;;;;;;;;5010822;28;20452;-72
2023/03/21 10:45:52;;;;;;;16.92;3.05;;;;;;;;;;5011531;28;20484;-72
2023/03/21 10:48:18;;;;;;;19.77;3.92;;;;;;;;;;5011517;28;20112;-73
2023/03/21 10:50:46;;;;;;;16.00;4.18;;;;;;;;;;4998863;28;20038;-73
2023/03/21 10:53:27;;;;;;;23.67;3.83;;;;;;;;;;4991778;28;20023;-73
2023/03/21 10:55:55;;;;;;;15.40;3.95;;;;;;;;;;5009572;28;20022;-72
2023/03/21 10:58:26;;;;;;;25.42;4.35;;;;;;;;;;5011641;28;20034;-71
2023/03/21 11:01:06;;;;;;;13.13;4.15;;;;;;;;;;5011543;28;20030;-70
2023/03/21 11:03:35;;;;;;;22.95;3.92;;;;;;;;;;5009663;28;20058;-73
2023/03/21 11:06:21;;;;;;;15.40;3.35;;;;;;;;;;5011274;28;20085;-74
2023/03/21 11:08:53;;;;;;;11.45;2.38;;;;;;;;;;5011179;28;20474;-74
2023/03/21 11:11:21;;;;;;;18.90;2.85;;;;;;;;;;5011238;28;20030;-72
2023/03/21 11:13:54;;;;;;;13.52;2.40;;;;;;;;;;5009863;28;20037;-72
2023/03/21 11:16:26;;;;;;;16.45;2.55;;;;;;;;;;5011133;28;20026;-73
2023/03/21 11:18:56;;;;;;;12.35;2.70;;;;;;;;;;5009773;28;20060;-71
2023/03/21 11:21:26;;;;;;;21.55;3.00;;;;;;;;;;5011156;28;20103;-75
2023/03/21 11:23:53;;;;;;;12.75;2.58;;;;;;;;;;5009732;28;20029;-72
2023/03/21 11:26:36;;;;;;;19.83;3.20;;;;;;;;;;5011112;28;20117;-74
2023/03/21 11:29:11;;;;;;;15.23;2.75;;;;;;;;;;5009639;28;20105;-72
2023/03/21 11:31:41;;;;;;;24.70;3.05;;;;;;;;;;5011174;28;20030;-73
2023/03/21 11:34:08;;;;;;;14.82;2.65;;;;;;;;;;5011191;28;20475;-72
2023/03/21 11:36:37;;;;;;;22.00;4.63;;;;;;;;;;5011225;28;20028;-73
2023/03/21 11:39:14;;;;;;;20.27;3.85;;;;;;;;;;5010878;28;20034;-73
2023/03/21 11:41:42;;;;;;;23.15;3.35;;;;;;;;;;5011144;28;20032;-72
2023/03/21 11:44:22;;;;;;;21.02;2.75;;;;;;;;;;5010972;28;20026;-72
2023/03/21 11:46:49;;;;;;;18.10;3.08;;;;;;;;;;5011061;28;20034;-72
2023/03/21 11:49:15;;;;;;;11.85;2.30;;;;;;;;;;5010788;28;20030;-72
2023/03/21 11:51:46;;;;;;;16.85;2.95;;;;;;;;;;5010849;28;20026;-70
2023/03/21 11:54:35;;;;;;;21.15;2.95;;;;;;;;;;5012542;28;20018;-73
2023/03/21 11:57:11;;;;;;;21.45;3.28;;;;;;;;;;5006472;28;20451;-72
2023/03/21 11:59:46;;;;;;;24.05;2.88;;;;;;;;;;5014703;28;20018;-72
2023/03/21 12:02:31;;;;;;;12.48;3.17;;;;;;;;;;5014187;28;20046;-73
2023/03/21 12:05:04;;;;;;;20.75;3.28;;;;;;;;;;5013115;28;20053;-72
2023/03/21 12:07:30;;;;;;;15.45;2.45;;;;;;;;;;5014186;28;20098;-73
2023/03/21 12:10:22;;;;;;;24.45;3.38;;;;;;;;;;5014400;28;20053;-72
2023/03/21 12:13:03;;;;;;;10.38;2.45;;;;;;;;;;5014320;28;20069;-72
2023/03/21 12:15:29;;;;;;;15.55;2.08;;;;;;;;;;5014374;28;20029;-72
2023/03/21 12:18:01;;;;;;;20.60;3.47;;;;;;;;;;5014258;28;20034;-74
2023/03/21 12:20:46;;;;;;;17.38;3.03;;;;;;;;;;5014008;28;20028;-72
2023/03/21 12:23:21;;;;;;;16.17;2.80;;;;;;;;;;5014059;28;20033;-72
2023/03/21 12:25:55;;;;;;;12.82;2.03;;;;;;;;;;5014394;28;20057;-73
2023/03/21 12:28:24;;;;;;;23.48;2.70;;;;;;;;;;5013986;28;20026;-75
2023/03/21 12:30:59;;;;;;;13.27;2.53;;;;;;;;;;5013883;28;20096;-73
2023/03/21 12:33:25;;;;;;;17.05;2.67;;;;;;;;;;5013618;28;20111;-72
2023/03/21 12:35:54;;;;;;;21.05;3.17;;;;;;;;;;5014175;28;20041;-74
2023/03/21 12:38:23;;;;;;;30.63;3.47;;;;;;;;;;5013948;28;20037;-73
2023/03/21 12:41:07;;;;;;;23.77;3.53;;;;;;;;;;5014121;28;20025;-73
2023/03/21 12:43:54;;;;;;;22.27;4.25;;;;;;;;;;5014042;28;20272;-74
2023/03/21 12:46:32;;;;;;;13.20;2.65;;;;;;;;;;5013588;28;20093;-72
2023/03/21 12:49:01;;;;;;;22.83;3.38;;;;;;;;;;5013556;28;20033;-74
2023/03/21 12:51:32;;;;;;;24.80;3.30;;;;;;;;;;5013833;28;20026;-74
2023/03/21 12:54:01;;;;;;;26.25;3.65;;;;;;;;;;5013688;28;20093;-74
2023/03/21 12:56:33;;;;;;;24.88;3.78;;;;;;;;;;5013471;28;20025;-73
2023/03/21 12:59:06;;;;;;;25.38;3.28;;;;;;;;;;5004102;28;20069;-72
2023/03/21 13:01:32;;;;;;;36.88;3.67;;;;;;;;;;4993781;28;20118;-73
2023/03/21 13:04:16;;;;;;;18.73;3.50;;;;;;;;;;4993684;28;20117;-74
2023/03/21 13:06:44;;;;;;;15.90;3.08;;;;;;;;;;5006295;28;20084;-74
2023/03/21 13:09:15;;;;;;;31.40;4.78;;;;;;;;;;5013604;28;20411;-74
2023/03/21 13:11:41;;;;;;;17.30;3.43;;;;;;;;;;5013197;28;20028;-74
2023/03/21 13:14:26;;;;;;;25.80;3.83;;;;;;;;;;5013047;28;20283;-74
2023/03/21 13:16:54;;;;;;;25.95;3.08;;;;;;;;;;5013220;28;20040;-74
2023/03/21 13:19:23;;;;;;;22.98;3.17;;;;;;;;;;5012850;28;20026;-74
2023/03/21 13:22:08;;;;;;;18.55;4.57;;;;;;;;;;5013121;28;20046;-73
2023/03/21 13:24:50;;;;;;;13.40;2.45;;;;;;;;;;5012831;28;20561;-74
2023/03/21 13:27:16;;;;;;;18.48;2.25;;;;;;;;;;5012855;28;20045;-74
2023/03/21 13:29:53;;;;;;;28.40;3.20;;;;;;;;;;5012761;28;20025;-72
2023/03/21 13:32:29;;;;;;;18.40;2.63;;;;;;;;;;5012633;28;20107;-72
2023/03/21 13:35:00;;;;;;;22.73;3.53;;;;;;;;;;5012830;28;20472;-76
2023/03/21 13:37:29;;;;;;;21.70;3.92;;;;;;;;;;5012772;28;20044;-74
2023/03/21 13:39:59;;;;;;;18.60;3.22;;;;;;;;;;5012403;28;20049;-75
2023/03/21 13:42:30;;;;;;;23.88;3.38;;;;;;;;;;5012579;28;20021;-71
2023/03/21 13:44:57;;;;;;;18.80;2.73;;;;;;;;;;5012547;28;20029;-74
2023/03/21 13:47:30;;;;;;;18.77;3.17;;;;;;;;;;5012548;28;20272;-73
2023/03/21 13:50:15;;;;;;;26.60;2.80;;;;;;;;;;5011665;28;20483;-74
2023/03/21 13:52:41;;;;;;;20.65;3.72;;;;;;;;;;5012699;28;20459;-74
2023/03/21 13:55:15;;;;;;;19.48;3.88;;;;;;;;;;5012290;28;20022;-73
2023/03/21 13:57:45;;;;;;;26.00;3.17;;;;;;;;;;5011152;28;20064;-73
2023/03/21 14:00:17;;;;;;;20.08;3.40;;;;;;;;;;5012085;28;20030;-72
2023/03/21 14:02:52;;;;;;;24.88;3.45;;;;;;;;;;5012068;28;20430;-74
2023/03/21 14:05:21;;;;;;;21.45;3.00;;;;;;;;;;5011417;28;20128;-73
2023/03/21 14:07:49;;;;;;;23.02;3.08;;;;;;;;;;5010787;28;20495;-71
2023/03/21 14:10:22;;;;;;;28.27;3.33;;;;;;;;;;5011034;28;20030;-70
2023/03/21 14:12:49;;;;;;;23.67;3.13;;;;;;;;;;5012163;28;20025;-71
2023/03/21 14:15:22;;;;;;;27.13;3.03;;;;;;;;;;5012190;28;20022;-70
2023/03/21 14:17:49;;;;;;;34.60;4.50;;;;;;;;;;5011527;28;20030;-69
2023/03/21 14:20:22;;;;;;;21.25;3.20;;;;;;;;;;5012317;28;20470;-73
2023/03/21 14:22:48;;;;;;;30.40;5.15;;;;;;;;;;5010919;28;20076;-72
2023/03/21 14:25:15;;;;;;;30.58;4.18;;;;;;;;;;5011678;28;20028;-71
2023/03/21 14:27:47;;;;;;;31.98;3.28;;;;;;;;;;5010538;28;20387;-71
2023/03/21 14:30:24;;;;;;;28.23;3.03;;;;;;;;;;5010093;28;20033;-71
2023/03/21 14:32:53;;;;;;;27.92;3.50;;;;;;;;;;4992301;28;20108;-70
2023/03/21 14:35:20;;;;;;;25.00;3.97;;;;;;;;;;4999318;28;20163;-72
2023/03/21 14:37:46;;;;;;;29.83;4.05;;;;;;;;;;5012061;28;20029;-70
2023/03/21 14:40:26;;;;;;;29.15;3.55;;;;;;;;;;5011774;28;20287;-70
2023/03/21 14:42:52;;;;;;;34.05;4.03;;;;;;;;;;5011589;28;20471;-70
2023/03/21 14:45:29;;;;;;;28.25;4.03;;;;;;;;;;5011636;28;20033;-71
2023/03/21 14:48:04;;;;;;;26.02;3.70;;;;;;;;;;5010170;28;20428;-71